sensor_id;sensor_type;location;lat;lon;timestamp;P1;durP1;ratioP1;P2;durP2;ratioP2
11699;SDS011;5906;51.660;6.674;2022-10-17T00:00:35;7.03;;;5.17;;
11699;SDS011;5906;51.660;6.674;2022-10-17T00:03:02;10.27;;;4.83;;
11699;SDS011;5906;51.660;6.674;2022-10-17T00:05:29;7.90;;;4.80;;
11699;SDS011;5906;51.660;6.674;2022-10-17T00:07:55;8.13;;;5.23;;
11699;SDS011;5906;51.660;6.674;2022-10-17T00:10:22;10.43;;;5.13;;
11699;SDS011;5906;51.660;6.674;2022-10-17T00:12:50;14.33;;;6.27;;
11699;SDS011;5906;51.660;6.674;2022-10-17T00:15:18;9.03;;;5.10;;
11699;SDS011;5906;51.660;6.674;2022-10-17T00:17:45;9.47;;;5.00;;
11699;SDS011;5906;51.660;6.674;2022-10-17T00:20:12;12.70;;;5.63;;
11699;SDS011;5906;51.660;6.674;2022-10-17T00:22:40;6.00;;;5.13;;
11699;SDS011;5906;51.660;6.674;2022-10-17T00:25:07;5.40;;;4.80;;
11699;SDS011;5906;51.660;6.674;2022-10-17T00:27:34;10.13;;;5.00;;
11699;SDS011;5906;51.660;6.674;2022-10-17T00:30:02;10.43;;;6.30;;
11699;SDS011;5906;51.660;6.674;2022-10-17T00:32:30;8.33;;;5.90;;
11699;SDS011;5906;51.660;6.674;2022-10-17T00:34:57;8.50;;;5.10;;
11699;SDS011;5906;51.660;6.674;2022-10-17T00:37:24;9.70;;;5.40;;
11699;SDS011;5906;51.660;6.674;2022-10-17T00:39:51;10.43;;;6.30;;
11699;SDS011;5906;51.660;6.674;2022-10-17T00:42:19;8.90;;;5.73;;
11699;SDS011;5906;51.660;6.674;2022-10-17T00:47:14;12.17;;;6.53;;
11699;SDS011;5906;51.660;6.674;2022-10-17T00:49:44;7.67;;;5.90;;
11699;SDS011;5906;51.660;6.674;2022-10-17T00:52:17;9.60;;;6.13;;
11699;SDS011;5906;51.660;6.674;2022-10-17T00:54:51;16.53;;;6.27;;
11699;SDS011;5906;51.660;6.674;2022-10-17T00:57:21;8.13;;;5.57;;
11699;SDS011;5906;51.660;6.674;2022-10-17T00:59:49;19.50;;;6.20;;
11699;SDS011;5906;51.660;6.674;2022-10-17T01:02:22;6.80;;;5.70;;
11699;SDS011;5906;51.660;6.674;2022-10-17T01:04:49;10.57;;;6.10;;
11699;SDS011;5906;51.660;6.674;2022-10-17T01:07:20;13.27;;;6.60;;
11699;SDS011;5906;51.660;6.674;2022-10-17T01:09:51;8.03;;;5.90;;
11699;SDS011;5906;51.660;6.674;2022-10-17T01:26:36;11.93;;;7.00;;
11699;SDS011;5906;51.660;6.674;2022-10-17T01:34:31;8.23;;;6.70;;
11699;SDS011;5906;51.660;6.674;2022-10-17T01:39:56;11.13;;;6.90;;
11699;SDS011;5906;51.660;6.674;2022-10-17T01:45:36;9.80;;;7.00;;
11699;SDS011;5906;51.660;6.674;2022-10-17T01:48:17;20.57;;;6.87;;
11699;SDS011;5906;51.660;6.674;2022-10-17T01:50:52;12.27;;;7.83;;
11699;SDS011;5906;51.660;6.674;2022-10-17T01:53:28;9.80;;;7.17;;
11699;SDS011;5906;51.660;6.674;2022-10-17T01:55:59;9.53;;;7.20;;
11699;SDS011;5906;51.660;6.674;2022-10-17T01:58:32;13.57;;;6.90;;
11699;SDS011;5906;51.660;6.674;2022-10-17T02:01:08;9.00;;;6.40;;
11699;SDS011;5906;51.660;6.674;2022-10-17T02:03:38;9.90;;;7.13;;
11699;SDS011;5906;51.660;6.674;2022-10-17T02:06:08;11.70;;;7.57;;
11699;SDS011;5906;51.660;6.674;2022-10-17T02:08:42;10.30;;;7.50;;
11699;SDS011;5906;51.660;6.674;2022-10-17T02:11:19;10.10;;;7.13;;
11699;SDS011;5906;51.660;6.674;2022-10-17T02:19:08;11.47;;;8.20;;
11699;SDS011;5906;51.660;6.674;2022-10-17T02:24:53;13.07;;;7.97;;
11699;SDS011;5906;51.660;6.674;2022-10-17T02:30:15;9.83;;;7.10;;
11699;SDS011;5906;51.660;6.674;2022-10-17T02:33:10;11.83;;;8.20;;
11699;SDS011;5906;51.660;6.674;2022-10-17T02:35:51;13.63;;;8.67;;
11699;SDS011;5906;51.660;6.674;2022-10-17T02:38:21;15.17;;;8.40;;
11699;SDS011;5906;51.660;6.674;2022-10-17T02:40:50;12.77;;;8.70;;
11699;SDS011;5906;51.660;6.674;2022-10-17T02:43:19;13.80;;;7.60;;
11699;SDS011;5906;51.660;6.674;2022-10-17T02:45:47;12.63;;;8.40;;
11699;SDS011;5906;51.660;6.674;2022-10-17T02:48:21;14.70;;;8.07;;
11699;SDS011;5906;51.660;6.674;2022-10-17T02:51:01;14.50;;;8.60;;
11699;SDS011;5906;51.660;6.674;2022-10-17T02:53:33;12.53;;;7.77;;
11699;SDS011;5906;51.660;6.674;2022-10-17T02:56:13;14.80;;;7.33;;
11699;SDS011;5906;51.660;6.674;2022-10-17T02:58:45;11.30;;;7.47;;
11699;SDS011;5906;51.660;6.674;2022-10-17T03:01:18;11.30;;;7.43;;
11699;SDS011;5906;51.660;6.674;2022-10-17T03:03:45;11.60;;;6.73;;
11699;SDS011;5906;51.660;6.674;2022-10-17T03:06:12;12.90;;;8.30;;
11699;SDS011;5906;51.660;6.674;2022-10-17T03:08:39;21.50;;;8.37;;
11699;SDS011;5906;51.660;6.674;2022-10-17T03:11:06;15.67;;;7.47;;
11699;SDS011;5906;51.660;6.674;2022-10-17T03:13:32;12.53;;;7.07;;
11699;SDS011;5906;51.660;6.674;2022-10-17T03:16:04;9.17;;;7.00;;
11699;SDS011;5906;51.660;6.674;2022-10-17T03:18:31;13.43;;;8.17;;
11699;SDS011;5906;51.660;6.674;2022-10-17T03:20:58;14.80;;;7.50;;
11699;SDS011;5906;51.660;6.674;2022-10-17T03:23:25;15.90;;;7.87;;
11699;SDS011;5906;51.660;6.674;2022-10-17T03:25:51;10.90;;;7.73;;
11699;SDS011;5906;51.660;6.674;2022-10-17T03:28:18;11.37;;;7.37;;
11699;SDS011;5906;51.660;6.674;2022-10-17T03:30:45;11.13;;;8.13;;
11699;SDS011;5906;51.660;6.674;2022-10-17T03:33:12;17.43;;;7.67;;
11699;SDS011;5906;51.660;6.674;2022-10-17T03:35:38;12.87;;;7.67;;
11699;SDS011;5906;51.660;6.674;2022-10-17T03:38:06;11.77;;;7.47;;
11699;SDS011;5906;51.660;6.674;2022-10-17T03:40:32;15.50;;;7.80;;
11699;SDS011;5906;51.660;6.674;2022-10-17T03:43:00;13.13;;;8.47;;
11699;SDS011;5906;51.660;6.674;2022-10-17T03:45:26;10.53;;;6.90;;
11699;SDS011;5906;51.660;6.674;2022-10-17T03:47:53;14.63;;;8.13;;
11699;SDS011;5906;51.660;6.674;2022-10-17T03:50:20;13.30;;;7.73;;
11699;SDS011;5906;51.660;6.674;2022-10-17T03:52:47;10.97;;;7.70;;
11699;SDS011;5906;51.660;6.674;2022-10-17T03:55:15;13.57;;;7.80;;
11699;SDS011;5906;51.660;6.674;2022-10-17T03:57:42;8.40;;;6.60;;
11699;SDS011;5906;51.660;6.674;2022-10-17T04:00:11;18.30;;;7.90;;
11699;SDS011;5906;51.660;6.674;2022-10-17T04:02:38;14.80;;;8.87;;
11699;SDS011;5906;51.660;6.674;2022-10-17T04:05:05;15.90;;;7.73;;
11699;SDS011;5906;51.660;6.674;2022-10-17T04:07:32;17.77;;;8.63;;
11699;SDS011;5906;51.660;6.674;2022-10-17T04:09:59;11.60;;;7.60;;
11699;SDS011;5906;51.660;6.674;2022-10-17T04:12:26;14.00;;;7.87;;
11699;SDS011;5906;51.660;6.674;2022-10-17T04:14:53;16.90;;;8.07;;
11699;SDS011;5906;51.660;6.674;2022-10-17T04:17:20;13.07;;;8.00;;
11699;SDS011;5906;51.660;6.674;2022-10-17T04:19:50;15.30;;;7.53;;
11699;SDS011;5906;51.660;6.674;2022-10-17T04:22:17;14.77;;;7.30;;
11699;SDS011;5906;51.660;6.674;2022-10-17T04:24:43;17.97;;;9.20;;
11699;SDS011;5906;51.660;6.674;2022-10-17T04:27:10;13.90;;;8.33;;
11699;SDS011;5906;51.660;6.674;2022-10-17T04:29:37;12.83;;;7.83;;
11699;SDS011;5906;51.660;6.674;2022-10-17T04:32:04;12.53;;;8.30;;
11699;SDS011;5906;51.660;6.674;2022-10-17T04:34:30;12.80;;;7.60;;
11699;SDS011;5906;51.660;6.674;2022-10-17T04:36:57;11.37;;;8.00;;
11699;SDS011;5906;51.660;6.674;2022-10-17T04:39:24;13.70;;;7.20;;
11699;SDS011;5906;51.660;6.674;2022-10-17T04:41:51;11.60;;;7.77;;
11699;SDS011;5906;51.660;6.674;2022-10-17T04:44:18;11.57;;;7.93;;
11699;SDS011;5906;51.660;6.674;2022-10-17T04:46:46;12.47;;;7.30;;
11699;SDS011;5906;51.660;6.674;2022-10-17T04:49:12;12.87;;;7.50;;
11699;SDS011;5906;51.660;6.674;2022-10-17T04:51:39;14.63;;;8.20;;
11699;SDS011;5906;51.660;6.674;2022-10-17T04:54:06;10.17;;;7.17;;
11699;SDS011;5906;51.660;6.674;2022-10-17T04:56:33;12.20;;;8.07;;
11699;SDS011;5906;51.660;6.674;2022-10-17T04:59:00;12.40;;;8.10;;
11699;SDS011;5906;51.660;6.674;2022-10-17T05:01:26;13.60;;;8.00;;
11699;SDS011;5906;51.660;6.674;2022-10-17T05:03:53;12.73;;;8.70;;
11699;SDS011;5906;51.660;6.674;2022-10-17T05:06:22;10.90;;;8.10;;
11699;SDS011;5906;51.660;6.674;2022-10-17T05:08:50;15.30;;;7.97;;
11699;SDS011;5906;51.660;6.674;2022-10-17T05:11:17;20.30;;;8.40;;
11699;SDS011;5906;51.660;6.674;2022-10-17T05:13:56;15.50;;;7.70;;
11699;SDS011;5906;51.660;6.674;2022-10-17T05:16:24;11.90;;;8.60;;
11699;SDS011;5906;51.660;6.674;2022-10-17T05:18:53;14.83;;;8.73;;
11699;SDS011;5906;51.660;6.674;2022-10-17T05:21:22;13.50;;;8.20;;
11699;SDS011;5906;51.660;6.674;2022-10-17T05:23:50;17.20;;;8.33;;
11699;SDS011;5906;51.660;6.674;2022-10-17T05:26:17;18.70;;;8.33;;
11699;SDS011;5906;51.660;6.674;2022-10-17T05:28:45;14.30;;;8.13;;
11699;SDS011;5906;51.660;6.674;2022-10-17T05:31:12;11.70;;;8.17;;
11699;SDS011;5906;51.660;6.674;2022-10-17T05:33:39;10.33;;;8.17;;
11699;SDS011;5906;51.660;6.674;2022-10-17T05:36:06;13.93;;;8.33;;
11699;SDS011;5906;51.660;6.674;2022-10-17T05:38:33;19.23;;;9.10;;
11699;SDS011;5906;51.660;6.674;2022-10-17T05:41:01;11.77;;;7.67;;
11699;SDS011;5906;51.660;6.674;2022-10-17T05:43:30;15.93;;;8.53;;
11699;SDS011;5906;51.660;6.674;2022-10-17T05:45:58;15.73;;;9.50;;
11699;SDS011;5906;51.660;6.674;2022-10-17T05:48:27;12.67;;;8.00;;
11699;SDS011;5906;51.660;6.674;2022-10-17T05:51:01;13.60;;;8.43;;
11699;SDS011;5906;51.660;6.674;2022-10-17T05:53:33;14.50;;;8.20;;
11699;SDS011;5906;51.660;6.674;2022-10-17T05:56:03;14.80;;;7.83;;
11699;SDS011;5906;51.660;6.674;2022-10-17T05:58:31;13.73;;;8.00;;
11699;SDS011;5906;51.660;6.674;2022-10-17T06:01:17;11.80;;;7.60;;
11699;SDS011;5906;51.660;6.674;2022-10-17T06:03:44;15.20;;;8.50;;
11699;SDS011;5906;51.660;6.674;2022-10-17T06:06:11;13.10;;;8.73;;
11699;SDS011;5906;51.660;6.674;2022-10-17T06:08:39;16.73;;;7.83;;
11699;SDS011;5906;51.660;6.674;2022-10-17T06:11:06;16.70;;;7.87;;
11699;SDS011;5906;51.660;6.674;2022-10-17T06:13:36;15.77;;;8.63;;
11699;SDS011;5906;51.660;6.674;2022-10-17T06:16:03;15.10;;;6.97;;
11699;SDS011;5906;51.660;6.674;2022-10-17T06:18:30;10.50;;;7.67;;
11699;SDS011;5906;51.660;6.674;2022-10-17T06:21:01;13.10;;;7.70;;
11699;SDS011;5906;51.660;6.674;2022-10-17T06:23:36;20.73;;;8.30;;
11699;SDS011;5906;51.660;6.674;2022-10-17T06:26:04;13.80;;;7.00;;
11699;SDS011;5906;51.660;6.674;2022-10-17T06:28:32;11.47;;;6.80;;
11699;SDS011;5906;51.660;6.674;2022-10-17T06:31:04;11.10;;;6.97;;
11699;SDS011;5906;51.660;6.674;2022-10-17T06:33:35;13.60;;;7.37;;
11699;SDS011;5906;51.660;6.674;2022-10-17T06:36:03;11.80;;;6.80;;
11699;SDS011;5906;51.660;6.674;2022-10-17T06:38:30;13.93;;;7.33;;
11699;SDS011;5906;51.660;6.674;2022-10-17T06:41:32;15.17;;;7.23;;
11699;SDS011;5906;51.660;6.674;2022-10-17T06:43:52;9.80;;;6.80;;
11699;SDS011;5906;51.660;6.674;2022-10-17T06:46:19;17.10;;;7.60;;
11699;SDS011;5906;51.660;6.674;2022-10-17T06:48:46;14.87;;;7.60;;
11699;SDS011;5906;51.660;6.674;2022-10-17T06:51:12;11.60;;;7.07;;
11699;SDS011;5906;51.660;6.674;2022-10-17T06:53:39;18.23;;;7.97;;
11699;SDS011;5906;51.660;6.674;2022-10-17T06:56:06;12.53;;;7.50;;
11699;SDS011;5906;51.660;6.674;2022-10-17T06:58:35;10.37;;;7.47;;
11699;SDS011;5906;51.660;6.674;2022-10-17T07:01:07;15.60;;;7.60;;
11699;SDS011;5906;51.660;6.674;2022-10-17T07:03:36;10.57;;;7.10;;
11699;SDS011;5906;51.660;6.674;2022-10-17T07:06:03;18.53;;;7.37;;
11699;SDS011;5906;51.660;6.674;2022-10-17T07:08:30;10.77;;;6.70;;
11699;SDS011;5906;51.660;6.674;2022-10-17T07:10:58;11.80;;;7.53;;
11699;SDS011;5906;51.660;6.674;2022-10-17T07:13:24;22.50;;;7.07;;
11699;SDS011;5906;51.660;6.674;2022-10-17T07:15:51;11.07;;;7.27;;
11699;SDS011;5906;51.660;6.674;2022-10-17T07:18:23;12.80;;;6.83;;
11699;SDS011;5906;51.660;6.674;2022-10-17T07:20:53;11.70;;;7.20;;
11699;SDS011;5906;51.660;6.674;2022-10-17T07:23:21;11.20;;;6.80;;
11699;SDS011;5906;51.660;6.674;2022-10-17T07:25:48;8.63;;;6.17;;
11699;SDS011;5906;51.660;6.674;2022-10-17T07:28:16;14.13;;;7.10;;
11699;SDS011;5906;51.660;6.674;2022-10-17T07:30:42;11.43;;;6.60;;
11699;SDS011;5906;51.660;6.674;2022-10-17T07:33:10;16.37;;;7.70;;
11699;SDS011;5906;51.660;6.674;2022-10-17T07:35:37;10.17;;;6.47;;
11699;SDS011;5906;51.660;6.674;2022-10-17T07:38:07;12.63;;;6.33;;
11699;SDS011;5906;51.660;6.674;2022-10-17T07:40:34;16.43;;;7.27;;
11699;SDS011;5906;51.660;6.674;2022-10-17T07:43:01;12.40;;;7.03;;
11699;SDS011;5906;51.660;6.674;2022-10-17T07:45:28;15.53;;;6.70;;
11699;SDS011;5906;51.660;6.674;2022-10-17T07:47:58;8.27;;;6.30;;
11699;SDS011;5906;51.660;6.674;2022-10-17T07:50:25;13.77;;;6.33;;
11699;SDS011;5906;51.660;6.674;2022-10-17T07:52:52;9.50;;;6.90;;
11699;SDS011;5906;51.660;6.674;2022-10-17T07:55:18;8.03;;;5.70;;
11699;SDS011;5906;51.660;6.674;2022-10-17T07:57:45;14.70;;;6.20;;
11699;SDS011;5906;51.660;6.674;2022-10-17T08:00:12;8.33;;;6.07;;
11699;SDS011;5906;51.660;6.674;2022-10-17T08:02:39;10.03;;;6.20;;
11699;SDS011;5906;51.660;6.674;2022-10-17T08:05:06;9.03;;;6.00;;
11699;SDS011;5906;51.660;6.674;2022-10-17T08:07:33;8.97;;;6.40;;
11699;SDS011;5906;51.660;6.674;2022-10-17T08:10:00;7.50;;;5.57;;
11699;SDS011;5906;51.660;6.674;2022-10-17T08:12:27;9.90;;;6.47;;
11699;SDS011;5906;51.660;6.674;2022-10-17T08:14:58;9.50;;;6.07;;
11699;SDS011;5906;51.660;6.674;2022-10-17T08:17:25;13.47;;;6.37;;
11699;SDS011;5906;51.660;6.674;2022-10-17T08:19:52;9.30;;;5.50;;
11699;SDS011;5906;51.660;6.674;2022-10-17T08:22:19;8.13;;;5.53;;
11699;SDS011;5906;51.660;6.674;2022-10-17T08:24:46;10.07;;;6.00;;
11699;SDS011;5906;51.660;6.674;2022-10-17T08:27:12;8.90;;;5.20;;
11699;SDS011;5906;51.660;6.674;2022-10-17T08:29:39;7.17;;;5.40;;
11699;SDS011;5906;51.660;6.674;2022-10-17T08:32:06;9.10;;;5.50;;
11699;SDS011;5906;51.660;6.674;2022-10-17T08:34:35;9.33;;;6.17;;
11699;SDS011;5906;51.660;6.674;2022-10-17T08:37:02;8.30;;;5.23;;
11699;SDS011;5906;51.660;6.674;2022-10-17T08:39:29;13.00;;;5.43;;
11699;SDS011;5906;51.660;6.674;2022-10-17T08:41:59;9.57;;;5.17;;
11699;SDS011;5906;51.660;6.674;2022-10-17T08:47:44;14.83;;;5.87;;
11699;SDS011;5906;51.660;6.674;2022-10-17T08:50:24;8.63;;;5.20;;
11699;SDS011;5906;51.660;6.674;2022-10-17T08:53:05;8.87;;;5.73;;
11699;SDS011;5906;51.660;6.674;2022-10-17T08:55:37;6.73;;;4.80;;
11699;SDS011;5906;51.660;6.674;2022-10-17T08:58:23;10.70;;;5.10;;
11699;SDS011;5906;51.660;6.674;2022-10-17T09:00:56;10.40;;;4.50;;
11699;SDS011;5906;51.660;6.674;2022-10-17T09:11:55;10.00;;;4.67;;
11699;SDS011;5906;51.660;6.674;2022-10-17T09:17:35;9.20;;;4.37;;
11699;SDS011;5906;51.660;6.674;2022-10-17T09:20:21;7.37;;;4.80;;
11699;SDS011;5906;51.660;6.674;2022-10-17T09:25:27;5.70;;;4.60;;
11699;SDS011;5906;51.660;6.674;2022-10-17T09:28:32;13.53;;;5.40;;
11699;SDS011;5906;51.660;6.674;2022-10-17T09:33:40;9.33;;;4.83;;
11699;SDS011;5906;51.660;6.674;2022-10-17T09:39:05;6.97;;;4.40;;
11699;SDS011;5906;51.660;6.674;2022-10-17T09:42:11;10.83;;;4.10;;
11699;SDS011;5906;51.660;6.674;2022-10-17T09:44:31;5.90;;;3.47;;
11699;SDS011;5906;51.660;6.674;2022-10-17T09:47:14;10.10;;;4.90;;
11699;SDS011;5906;51.660;6.674;2022-10-17T09:50:07;11.70;;;4.83;;
11699;SDS011;5906;51.660;6.674;2022-10-17T09:52:42;5.53;;;4.30;;
11699;SDS011;5906;51.660;6.674;2022-10-17T09:55:15;7.70;;;4.53;;
11699;SDS011;5906;51.660;6.674;2022-10-17T10:00:20;5.07;;;4.07;;
11699;SDS011;5906;51.660;6.674;2022-10-17T10:03:06;5.57;;;4.67;;
11699;SDS011;5906;51.660;6.674;2022-10-17T10:08:29;6.47;;;4.37;;
11699;SDS011;5906;51.660;6.674;2022-10-17T10:11:00;7.87;;;4.63;;
11699;SDS011;5906;51.660;6.674;2022-10-17T10:13:30;5.57;;;4.20;;
11699;SDS011;5906;51.660;6.674;2022-10-17T10:16:16;6.50;;;4.33;;
11699;SDS011;5906;51.660;6.674;2022-10-17T10:18:56;9.67;;;5.40;;
11699;SDS011;5906;51.660;6.674;2022-10-17T10:21:24;11.60;;;4.10;;
11699;SDS011;5906;51.660;6.674;2022-10-17T10:26:38;8.50;;;4.97;;
11699;SDS011;5906;51.660;6.674;2022-10-17T10:29:25;6.37;;;4.23;;
11699;SDS011;5906;51.660;6.674;2022-10-17T10:32:08;6.97;;;4.27;;
11699;SDS011;5906;51.660;6.674;2022-10-17T10:34:45;4.57;;;4.13;;
11699;SDS011;5906;51.660;6.674;2022-10-17T10:37:22;8.67;;;4.97;;
11699;SDS011;5906;51.660;6.674;2022-10-17T10:39:52;4.70;;;4.30;;
11699;SDS011;5906;51.660;6.674;2022-10-17T10:42:31;5.17;;;4.10;;
11699;SDS011;5906;51.660;6.674;2022-10-17T10:53:47;5.07;;;4.57;;
11699;SDS011;5906;51.660;6.674;2022-10-17T10:56:32;6.00;;;4.50;;
11699;SDS011;5906;51.660;6.674;2022-10-17T11:01:47;6.90;;;4.63;;
11699;SDS011;5906;51.660;6.674;2022-10-17T11:07:25;7.60;;;4.40;;
11699;SDS011;5906;51.660;6.674;2022-10-17T11:12:47;12.07;;;5.50;;
11699;SDS011;5906;51.660;6.674;2022-10-17T11:16:05;7.50;;;5.13;;
11699;SDS011;5906;51.660;6.674;2022-10-17T11:18:44;11.20;;;5.30;;
11699;SDS011;5906;51.660;6.674;2022-10-17T11:24:20;10.10;;;5.87;;
11699;SDS011;5906;51.660;6.674;2022-10-17T11:26:53;9.27;;;5.90;;
11699;SDS011;5906;51.660;6.674;2022-10-17T11:29:26;7.83;;;4.93;;
11699;SDS011;5906;51.660;6.674;2022-10-17T11:31:55;8.37;;;5.13;;
11699;SDS011;5906;51.660;6.674;2022-10-17T11:34:26;7.83;;;5.40;;
11699;SDS011;5906;51.660;6.674;2022-10-17T11:37:02;7.90;;;5.13;;
11699;SDS011;5906;51.660;6.674;2022-10-17T11:39:51;11.90;;;5.77;;
11699;SDS011;5906;51.660;6.674;2022-10-17T11:43:11;6.93;;;5.27;;
11699;SDS011;5906;51.660;6.674;2022-10-17T11:45:32;7.57;;;5.47;;
11699;SDS011;5906;51.660;6.674;2022-10-17T11:48:12;9.47;;;5.60;;
11699;SDS011;5906;51.660;6.674;2022-10-17T11:50:51;14.27;;;6.47;;
11699;SDS011;5906;51.660;6.674;2022-10-17T11:53:54;8.33;;;5.87;;
11699;SDS011;5906;51.660;6.674;2022-10-17T11:56:33;14.00;;;5.40;;
11699;SDS011;5906;51.660;6.674;2022-10-17T11:59:32;9.13;;;5.90;;
11699;SDS011;5906;51.660;6.674;2022-10-17T12:02:27;7.77;;;5.50;;
11699;SDS011;5906;51.660;6.674;2022-10-17T12:08:24;7.60;;;5.37;;
11699;SDS011;5906;51.660;6.674;2022-10-17T12:10:59;7.00;;;5.13;;
11699;SDS011;5906;51.660;6.674;2022-10-17T12:18:46;7.80;;;5.60;;
11699;SDS011;5906;51.660;6.674;2022-10-17T12:24:30;14.83;;;6.20;;
11699;SDS011;5906;51.660;6.674;2022-10-17T12:32:37;9.17;;;6.27;;
11699;SDS011;5906;51.660;6.674;2022-10-17T12:35:32;7.93;;;6.33;;
11699;SDS011;5906;51.660;6.674;2022-10-17T12:38:14;13.70;;;6.30;;
11699;SDS011;5906;51.660;6.674;2022-10-17T12:40:46;13.33;;;6.20;;
11699;SDS011;5906;51.660;6.674;2022-10-17T12:45:53;8.90;;;5.63;;
11699;SDS011;5906;51.660;6.674;2022-10-17T12:51:12;14.83;;;6.23;;
11699;SDS011;5906;51.660;6.674;2022-10-17T12:54:10;7.80;;;6.10;;
11699;SDS011;5906;51.660;6.674;2022-10-17T12:56:44;7.03;;;5.40;;
11699;SDS011;5906;51.660;6.674;2022-10-17T13:01:48;10.00;;;5.67;;
11699;SDS011;5906;51.660;6.674;2022-10-17T13:04:21;7.67;;;5.60;;
11699;SDS011;5906;51.660;6.674;2022-10-17T13:06:50;8.90;;;5.67;;
11699;SDS011;5906;51.660;6.674;2022-10-17T13:11:52;6.80;;;5.30;;
11699;SDS011;5906;51.660;6.674;2022-10-17T13:14:20;6.43;;;5.43;;
11699;SDS011;5906;51.660;6.674;2022-10-17T13:16:56;10.77;;;5.60;;
11699;SDS011;5906;51.660;6.674;2022-10-17T13:19:28;11.40;;;5.40;;
11699;SDS011;5906;51.660;6.674;2022-10-17T13:22:09;7.43;;;4.40;;
11699;SDS011;5906;51.660;6.674;2022-10-17T13:24:40;7.40;;;5.27;;
11699;SDS011;5906;51.660;6.674;2022-10-17T13:27:27;12.80;;;5.90;;
11699;SDS011;5906;51.660;6.674;2022-10-17T13:29:56;17.60;;;4.90;;
11699;SDS011;5906;51.660;6.674;2022-10-17T13:32:25;10.57;;;5.30;;
11699;SDS011;5906;51.660;6.674;2022-10-17T13:35:10;7.03;;;4.30;;
11699;SDS011;5906;51.660;6.674;2022-10-17T13:37:43;21.80;;;6.80;;
11699;SDS011;5906;51.660;6.674;2022-10-17T13:40:22;9.07;;;5.37;;
11699;SDS011;5906;51.660;6.674;2022-10-17T13:43:16;7.60;;;6.13;;
11699;SDS011;5906;51.660;6.674;2022-10-17T13:45:56;9.70;;;5.00;;
11699;SDS011;5906;51.660;6.674;2022-10-17T13:48:48;15.13;;;5.20;;
11699;SDS011;5906;51.660;6.674;2022-10-17T13:51:14;12.60;;;6.10;;
11699;SDS011;5906;51.660;6.674;2022-10-17T13:53:41;11.10;;;5.57;;
11699;SDS011;5906;51.660;6.674;2022-10-17T13:59:05;11.90;;;5.60;;
11699;SDS011;5906;51.660;6.674;2022-10-17T14:01:44;9.27;;;5.47;;
11699;SDS011;5906;51.660;6.674;2022-10-17T14:04:11;15.60;;;5.70;;
11699;SDS011;5906;51.660;6.674;2022-10-17T14:06:45;9.70;;;5.93;;
11699;SDS011;5906;51.660;6.674;2022-10-17T14:09:23;7.77;;;5.20;;
11699;SDS011;5906;51.660;6.674;2022-10-17T14:11:56;8.93;;;5.33;;
11699;SDS011;5906;51.660;6.674;2022-10-17T14:14:26;9.70;;;5.33;;
11699;SDS011;5906;51.660;6.674;2022-10-17T14:17:11;8.60;;;5.00;;
11699;SDS011;5906;51.660;6.674;2022-10-17T14:19:45;7.93;;;4.80;;
11699;SDS011;5906;51.660;6.674;2022-10-17T14:22:40;10.23;;;5.27;;
11699;SDS011;5906;51.660;6.674;2022-10-17T14:25:31;11.03;;;5.00;;
11699;SDS011;5906;51.660;6.674;2022-10-17T14:30:35;11.03;;;5.27;;
11699;SDS011;5906;51.660;6.674;2022-10-17T14:35:56;14.10;;;6.70;;
11699;SDS011;5906;51.660;6.674;2022-10-17T14:38:25;10.93;;;4.73;;
11699;SDS011;5906;51.660;6.674;2022-10-17T14:43:57;8.67;;;4.80;;
11699;SDS011;5906;51.660;6.674;2022-10-17T14:46:26;12.20;;;5.70;;
11699;SDS011;5906;51.660;6.674;2022-10-17T14:48:54;8.07;;;5.20;;
11699;SDS011;5906;51.660;6.674;2022-10-17T14:51:27;9.30;;;5.33;;
11699;SDS011;5906;51.660;6.674;2022-10-17T14:54:21;7.07;;;4.90;;
11699;SDS011;5906;51.660;6.674;2022-10-17T14:56:51;13.10;;;5.27;;
11699;SDS011;5906;51.660;6.674;2022-10-17T14:59:19;14.40;;;5.07;;
11699;SDS011;5906;51.660;6.674;2022-10-17T15:02:09;10.00;;;5.50;;
11699;SDS011;5906;51.660;6.674;2022-10-17T15:04:36;7.60;;;5.40;;
11699;SDS011;5906;51.660;6.674;2022-10-17T15:07:03;10.53;;;6.03;;
11699;SDS011;5906;51.660;6.674;2022-10-17T15:09:30;9.60;;;5.80;;
11699;SDS011;5906;51.660;6.674;2022-10-17T15:12:00;14.47;;;5.67;;
11699;SDS011;5906;51.660;6.674;2022-10-17T15:14:29;9.13;;;5.60;;
11699;SDS011;5906;51.660;6.674;2022-10-17T15:16:55;7.63;;;6.13;;
11699;SDS011;5906;51.660;6.674;2022-10-17T15:19:22;18.23;;;6.60;;
11699;SDS011;5906;51.660;6.674;2022-10-17T15:21:49;13.23;;;6.60;;
11699;SDS011;5906;51.660;6.674;2022-10-17T15:24:15;10.63;;;6.23;;
11699;SDS011;5906;51.660;6.674;2022-10-17T15:26:42;8.90;;;6.20;;
11699;SDS011;5906;51.660;6.674;2022-10-17T15:29:13;10.33;;;6.33;;
11699;SDS011;5906;51.660;6.674;2022-10-17T15:31:40;10.30;;;7.37;;
11699;SDS011;5906;51.660;6.674;2022-10-17T15:34:07;12.23;;;6.90;;
11699;SDS011;5906;51.660;6.674;2022-10-17T15:36:35;14.03;;;7.70;;
11699;SDS011;5906;51.660;6.674;2022-10-17T15:39:05;10.30;;;7.10;;
11699;SDS011;5906;51.660;6.674;2022-10-17T15:41:33;10.07;;;7.07;;
11699;SDS011;5906;51.660;6.674;2022-10-17T15:43:59;12.93;;;7.83;;
11699;SDS011;5906;51.660;6.674;2022-10-17T15:46:27;7.80;;;6.83;;
11699;SDS011;5906;51.660;6.674;2022-10-17T15:49:00;9.73;;;7.30;;
11699;SDS011;5906;51.660;6.674;2022-10-17T15:51:29;9.90;;;7.33;;
11699;SDS011;5906;51.660;6.674;2022-10-17T15:53:56;10.67;;;7.23;;
11699;SDS011;5906;51.660;6.674;2022-10-17T15:56:46;11.20;;;7.40;;
11699;SDS011;5906;51.660;6.674;2022-10-17T15:59:19;14.73;;;7.57;;
11699;SDS011;5906;51.660;6.674;2022-10-17T16:01:51;11.67;;;7.40;;
11699;SDS011;5906;51.660;6.674;2022-10-17T16:04:17;8.67;;;7.00;;
11699;SDS011;5906;51.660;6.674;2022-10-17T16:06:44;12.07;;;7.80;;
11699;SDS011;5906;51.660;6.674;2022-10-17T16:09:12;12.53;;;8.00;;
11699;SDS011;5906;51.660;6.674;2022-10-17T16:11:40;13.43;;;7.97;;
11699;SDS011;5906;51.660;6.674;2022-10-17T16:14:12;15.80;;;8.90;;
11699;SDS011;5906;51.660;6.674;2022-10-17T16:16:40;11.40;;;8.00;;
11699;SDS011;5906;51.660;6.674;2022-10-17T16:19:08;15.07;;;8.30;;
11699;SDS011;5906;51.660;6.674;2022-10-17T16:21:36;11.50;;;7.83;;
11699;SDS011;5906;51.660;6.674;2022-10-17T16:24:04;11.63;;;7.57;;
11699;SDS011;5906;51.660;6.674;2022-10-17T16:26:31;13.50;;;9.17;;
11699;SDS011;5906;51.660;6.674;2022-10-17T16:28:58;15.07;;;7.77;;
11699;SDS011;5906;51.660;6.674;2022-10-17T16:31:29;10.83;;;7.70;;
11699;SDS011;5906;51.660;6.674;2022-10-17T16:33:58;12.00;;;7.50;;
11699;SDS011;5906;51.660;6.674;2022-10-17T16:36:27;10.83;;;7.70;;
11699;SDS011;5906;51.660;6.674;2022-10-17T16:38:54;11.47;;;8.57;;
11699;SDS011;5906;51.660;6.674;2022-10-17T16:44:12;13.97;;;9.80;;
11699;SDS011;5906;51.660;6.674;2022-10-17T16:46:39;17.53;;;10.43;;
11699;SDS011;5906;51.660;6.674;2022-10-17T16:49:06;15.27;;;9.63;;
11699;SDS011;5906;51.660;6.674;2022-10-17T16:51:33;17.73;;;10.07;;
11699;SDS011;5906;51.660;6.674;2022-10-17T16:54:01;17.63;;;10.50;;
11699;SDS011;5906;51.660;6.674;2022-10-17T16:56:28;11.60;;;9.53;;
11699;SDS011;5906;51.660;6.674;2022-10-17T16:58:57;13.90;;;10.00;;
11699;SDS011;5906;51.660;6.674;2022-10-17T17:01:25;15.80;;;10.20;;
11699;SDS011;5906;51.660;6.674;2022-10-17T17:03:54;15.83;;;10.10;;
11699;SDS011;5906;51.660;6.674;2022-10-17T17:06:23;14.73;;;10.03;;
11699;SDS011;5906;51.660;6.674;2022-10-17T17:08:52;14.97;;;10.63;;
11699;SDS011;5906;51.660;6.674;2022-10-17T17:11:20;22.87;;;9.90;;
11699;SDS011;5906;51.660;6.674;2022-10-17T17:13:48;17.20;;;10.53;;
11699;SDS011;5906;51.660;6.674;2022-10-17T17:16:16;15.87;;;9.50;;
11699;SDS011;5906;51.660;6.674;2022-10-17T17:18:46;16.90;;;8.93;;
11699;SDS011;5906;51.660;6.674;2022-10-17T17:21:16;13.33;;;9.40;;
11699;SDS011;5906;51.660;6.674;2022-10-17T17:23:43;14.93;;;8.83;;
11699;SDS011;5906;51.660;6.674;2022-10-17T17:26:14;12.13;;;8.47;;
11699;SDS011;5906;51.660;6.674;2022-10-17T17:28:45;12.53;;;9.20;;
11699;SDS011;5906;51.660;6.674;2022-10-17T17:31:13;15.03;;;8.30;;